sensor_id;sensor_type;location;lat;lon;timestamp;pressure;altitude;pressure_sealevel;temperature;humidity
24788;BME280;12883;52.662;5.196;2023-01-09T00:02:18;99212.06;;;9.00;100.00
24788;BME280;12883;52.662;5.196;2023-01-09T00:04:43;99216.66;;;8.93;100.00
24788;BME280;12883;52.662;5.196;2023-01-09T00:07:08;99215.19;;;8.97;100.00
24788;BME280;12883;52.662;5.196;2023-01-09T00:09:34;99214.13;;;8.98;100.00
24788;BME280;12883;52.662;5.196;2023-01-09T00:12:00;99211.72;;;8.96;100.00
24788;BME280;12883;52.662;5.196;2023-01-09T00:14:26;99214.94;;;8.98;100.00
24788;BME280;12883;52.662;5.196;2023-01-09T00:16:54;99216.66;;;8.93;100.00
24788;BME280;12883;52.662;5.196;2023-01-09T00:19:19;99219.66;;;8.96;100.00
24788;BME280;12883;52.662;5.196;2023-01-09T00:21:44;99214.94;;;8.98;100.00
24788;BME280;12883;52.662;5.196;2023-01-09T00:24:10;99225.75;;;8.97;100.00
24788;BME280;12883;52.662;5.196;2023-01-09T00:26:35;99230.22;;;8.96;100.00
24788;BME280;12883;52.662;5.196;2023-01-09T00:29:00;99239.22;;;8.95;100.00
24788;BME280;12883;52.662;5.196;2023-01-09T00:31:26;99235.84;;;8.88;100.00
24788;BME280;12883;52.662;5.196;2023-01-09T00:33:57;99223.66;;;8.87;100.00
24788;BME280;12883;52.662;5.196;2023-01-09T00:36:22;99223.31;;;8.84;100.00
24788;BME280;12883;52.662;5.196;2023-01-09T00:38:48;99181.25;;;8.53;100.00
24788;BME280;12883;52.662;5.196;2023-01-09T00:41:18;99233.69;;;8.85;100.00
24788;BME280;12883;52.662;5.196;2023-01-09T00:43:51;99225.75;;;8.85;100.00
24788;BME280;12883;52.662;5.196;2023-01-09T00:46:21;99229.38;;;8.73;100.00
24788;BME280;12883;52.662;5.196;2023-01-09T00:48:49;99235.47;;;8.73;100.00
24788;BME280;12883;52.662;5.196;2023-01-09T00:51:17;99211.16;;;8.53;100.00
24788;BME280;12883;52.662;5.196;2023-01-09T00:53:43;99214.34;;;8.44;100.00
24788;BME280;12883;52.662;5.196;2023-01-09T00:56:14;99250.34;;;8.56;100.00
24788;BME280;12883;52.662;5.196;2023-01-09T00:58:41;99229.38;;;8.43;100.00
24788;BME280;12883;52.662;5.196;2023-01-09T01:01:06;99232.94;;;8.37;100.00
24788;BME280;12883;52.662;5.196;2023-01-09T01:03:32;99208.78;;;8.16;100.00
24788;BME280;12883;52.662;5.196;2023-01-09T01:05:57;99243.94;;;8.34;100.00
24788;BME280;12883;52.662;5.196;2023-01-09T01:08:41;99249.22;;;8.34;100.00
24788;BME280;12883;52.662;5.196;2023-01-09T01:11:08;99226.94;;;8.30;100.00
24788;BME280;12883;52.662;5.196;2023-01-09T01:13:36;99254.50;;;8.34;100.00
24788;BME280;12883;52.662;5.196;2023-01-09T01:16:10;99246.69;;;8.28;100.00
24788;BME280;12883;52.662;5.196;2023-01-09T01:18:36;99248.50;;;8.27;100.00
24788;BME280;12883;52.662;5.196;2023-01-09T01:21:10;99226.78;;;8.25;100.00
24788;BME280;12883;52.662;5.196;2023-01-09T01:23:36;99223.22;;;8.20;100.00
24788;BME280;12883;52.662;5.196;2023-01-09T01:26:06;99189.22;;;7.87;100.00
24788;BME280;12883;52.662;5.196;2023-01-09T01:28:32;99221.50;;;8.07;100.00
24788;BME280;12883;52.662;5.196;2023-01-09T01:30:58;99226.78;;;8.07;100.00
24788;BME280;12883;52.662;5.196;2023-01-09T01:33:23;99228.03;;;8.05;100.00
24788;BME280;12883;52.662;5.196;2023-01-09T01:35:49;99230.44;;;8.06;100.00
24788;BME280;12883;52.662;5.196;2023-01-09T01:38:14;99234.13;;;8.05;100.00
24788;BME280;12883;52.662;5.196;2023-01-09T01:40:39;99239.03;;;8.02;100.00
24788;BME280;12883;52.662;5.196;2023-01-09T01:43:05;99243.50;;;8.01;100.00
24788;BME280;12883;52.662;5.196;2023-01-09T01:45:30;99238.59;;;7.87;100.00
24788;BME280;12883;52.662;5.196;2023-01-09T01:48:07;99221.97;;;7.68;100.00
24788;BME280;12883;52.662;5.196;2023-01-09T01:50:55;99254.88;;;7.84;100.00
24788;BME280;12883;52.662;5.196;2023-01-09T01:53:30;99258.19;;;7.79;100.00
24788;BME280;12883;52.662;5.196;2023-01-09T01:56:11;99255.53;;;7.79;100.00
24788;BME280;12883;52.662;5.196;2023-01-09T02:01:25;99263.31;;;7.74;100.00
24788;BME280;12883;52.662;5.196;2023-01-09T02:03:53;99268.25;;;7.71;100.00
24788;BME280;12883;52.662;5.196;2023-01-09T02:06:19;99263.97;;;7.70;100.00
24788;BME280;12883;52.662;5.196;2023-01-09T02:08:45;99271.63;;;7.78;100.00
24788;BME280;12883;52.662;5.196;2023-01-09T02:11:12;99266.91;;;7.80;100.00
24788;BME280;12883;52.662;5.196;2023-01-09T02:13:39;99255.25;;;7.69;100.00
24788;BME280;12883;52.662;5.196;2023-01-09T02:16:16;99269.09;;;7.83;100.00
24788;BME280;12883;52.662;5.196;2023-01-09T02:18:48;99267.72;;;7.80;100.00
24788;BME280;12883;52.662;5.196;2023-01-09T02:21:42;99267.66;;;7.87;100.00
24788;BME280;12883;52.662;5.196;2023-01-09T02:27:44;99276.31;;;7.94;100.00
24788;BME280;12883;52.662;5.196;2023-01-09T02:41:25;99277.56;;;8.09;100.00
24788;BME280;12883;52.662;5.196;2023-01-09T02:44:24;99258.94;;;8.04;100.00
24788;BME280;12883;52.662;5.196;2023-01-09T02:49:59;99258.78;;;7.99;100.00
24788;BME280;12883;52.662;5.196;2023-01-09T03:06:29;99254.13;;;7.77;100.00
24788;BME280;12883;52.662;5.196;2023-01-09T03:09:01;99273.22;;;7.79;100.00
24788;BME280;12883;52.662;5.196;2023-01-09T03:11:34;99267.13;;;7.78;100.00
24788;BME280;12883;52.662;5.196;2023-01-09T03:14:08;99282.81;;;7.73;100.00
24788;BME280;12883;52.662;5.196;2023-01-09T03:16:36;99282.81;;;7.73;100.00
24788;BME280;12883;52.662;5.196;2023-01-09T03:19:09;99284.00;;;7.77;100.00
24788;BME280;12883;52.662;5.196;2023-01-09T03:21:36;99288.09;;;7.73;100.00
24788;BME280;12883;52.662;5.196;2023-01-09T03:24:02;99273.00;;;7.80;100.00
24788;BME280;12883;52.662;5.196;2023-01-09T03:26:29;99272.19;;;7.80;100.00
24788;BME280;12883;52.662;5.196;2023-01-09T03:28:55;99271.00;;;7.76;100.00
24788;BME280;12883;52.662;5.196;2023-01-09T03:31:21;99238.34;;;7.52;100.00
24788;BME280;12883;52.662;5.196;2023-01-09T03:33:47;99282.69;;;7.86;100.00
24788;BME280;12883;52.662;5.196;2023-01-09T03:36:13;99275.41;;;7.82;100.00
24788;BME280;12883;52.662;5.196;2023-01-09T03:38:39;99263.16;;;7.69;100.00
24788;BME280;12883;52.662;5.196;2023-01-09T03:41:04;99278.44;;;7.85;100.00
24788;BME280;12883;52.662;5.196;2023-01-09T03:43:30;99285.59;;;7.78;100.00
24788;BME280;12883;52.662;5.196;2023-01-09T03:45:55;99279.47;;;7.84;100.00
24788;BME280;12883;52.662;5.196;2023-01-09T03:48:21;99282.69;;;7.86;100.00
24788;BME280;12883;52.662;5.196;2023-01-09T03:50:51;99250.84;;;7.63;100.00
24788;BME280;12883;52.662;5.196;2023-01-09T03:53:17;99281.06;;;7.85;100.00
24788;BME280;12883;52.662;5.196;2023-01-09T03:55:48;99281.72;;;7.81;100.00
24788;BME280;12883;52.662;5.196;2023-01-09T03:58:14;99229.50;;;7.65;100.00
24788;BME280;12883;52.662;5.196;2023-01-09T04:00:40;99275.22;;;7.83;100.00
24788;BME280;12883;52.662;5.196;2023-01-09T04:03:07;99283.72;;;7.85;100.00
24788;BME280;12883;52.662;5.196;2023-01-09T04:05:33;99268.31;;;7.82;100.00
24788;BME280;12883;52.662;5.196;2023-01-09T04:07:59;99273.16;;;7.85;100.00
24788;BME280;12883;52.662;5.196;2023-01-09T04:10:24;99267.28;;;7.83;100.00
24788;BME280;12883;52.662;5.196;2023-01-09T04:12:49;99224.22;;;7.47;100.00
24788;BME280;12883;52.662;5.196;2023-01-09T04:15:15;99229.78;;;7.57;100.00
24788;BME280;12883;52.662;5.196;2023-01-09T04:17:40;99262.31;;;7.75;100.00
24788;BME280;12883;52.662;5.196;2023-01-09T04:20:06;99237.28;;;7.60;100.00
24788;BME280;12883;52.662;5.196;2023-01-09T04:22:32;99277.41;;;7.86;100.00
24788;BME280;12883;52.662;5.196;2023-01-09T04:24:57;99275.00;;;7.85;100.00
24788;BME280;12883;52.662;5.196;2023-01-09T04:27:23;99281.94;;;7.79;100.00
24788;BME280;12883;52.662;5.196;2023-01-09T04:29:48;99288.69;;;7.75;100.00
24788;BME280;12883;52.662;5.196;2023-01-09T04:32:14;99287.31;;;7.73;100.00
24788;BME280;12883;52.662;5.196;2023-01-09T04:34:39;99290.72;;;7.73;100.00
24788;BME280;12883;52.662;5.196;2023-01-09T04:37:04;99223.53;;;7.33;100.00
24788;BME280;12883;52.662;5.196;2023-01-09T04:39:30;99290.69;;;7.80;100.00
24788;BME280;12883;52.662;5.196;2023-01-09T04:41:55;99290.59;;;7.68;100.00
24788;BME280;12883;52.662;5.196;2023-01-09T04:44:22;99294.78;;;7.76;100.00
24788;BME280;12883;52.662;5.196;2023-01-09T04:46:52;99293.50;;;7.60;100.00
24788;BME280;12883;52.662;5.196;2023-01-09T04:49:18;99301.16;;;7.68;100.00
24788;BME280;12883;52.662;5.196;2023-01-09T04:51:44;99298.34;;;7.63;100.00
24788;BME280;12883;52.662;5.196;2023-01-09T04:54:09;99269.28;;;7.45;100.00
24788;BME280;12883;52.662;5.196;2023-01-09T04:56:35;99286.59;;;7.59;100.00
24788;BME280;12883;52.662;5.196;2023-01-09T04:59:01;99295.13;;;7.61;100.00
24788;BME280;12883;52.662;5.196;2023-01-09T05:01:26;99297.03;;;7.54;100.00
24788;BME280;12883;52.662;5.196;2023-01-09T05:03:51;99290.25;;;7.58;100.00
24788;BME280;12883;52.662;5.196;2023-01-09T05:06:17;99293.94;;;7.57;100.00
24788;BME280;12883;52.662;5.196;2023-01-09T05:08:42;99279.53;;;7.53;100.00
24788;BME280;12883;52.662;5.196;2023-01-09T05:11:08;99283.22;;;7.52;100.00
24788;BME280;12883;52.662;5.196;2023-01-09T05:13:33;99225.19;;;7.03;100.00
24788;BME280;12883;52.662;5.196;2023-01-09T05:15:58;99297.88;;;7.48;100.00
24788;BME280;12883;52.662;5.196;2023-01-09T05:18:24;99273.66;;;7.33;100.00
24788;BME280;12883;52.662;5.196;2023-01-09T05:20:49;99292.00;;;7.46;100.00
24788;BME280;12883;52.662;5.196;2023-01-09T05:23:14;99280.69;;;7.39;100.00
24788;BME280;12883;52.662;5.196;2023-01-09T05:25:40;99292.06;;;7.40;100.00
24788;BME280;12883;52.662;5.196;2023-01-09T05:28:05;99296.69;;;7.44;100.00
24788;BME280;12883;52.662;5.196;2023-01-09T05:30:30;99301.78;;;7.39;100.00
24788;BME280;12883;52.662;5.196;2023-01-09T05:32:56;99248.28;;;7.08;100.00
24788;BME280;12883;52.662;5.196;2023-01-09T05:35:21;99303.44;;;7.40;100.00
24788;BME280;12883;52.662;5.196;2023-01-09T05:37:46;99299.78;;;7.41;100.00
24788;BME280;12883;52.662;5.196;2023-01-09T05:40:12;99306.81;;;7.47;100.00
24788;BME280;12883;52.662;5.196;2023-01-09T05:42:38;99304.13;;;7.54;100.00
24788;BME280;12883;52.662;5.196;2023-01-09T05:45:04;99303.66;;;7.57;100.00
24788;BME280;12883;52.662;5.196;2023-01-09T05:47:30;99296.00;;;7.55;100.00
24788;BME280;12883;52.662;5.196;2023-01-09T05:49:56;99299.22;;;7.57;100.00
24788;BME280;12883;52.662;5.196;2023-01-09T05:52:22;99297.34;;;7.40;100.00
24788;BME280;12883;52.662;5.196;2023-01-09T05:54:48;99308.91;;;7.63;100.00
24788;BME280;12883;52.662;5.196;2023-01-09T05:57:13;99277.19;;;7.45;100.00
24788;BME280;12883;52.662;5.196;2023-01-09T05:59:38;99278.22;;;7.44;100.00
24788;BME280;12883;52.662;5.196;2023-01-09T06:02:04;99314.34;;;7.68;100.00
24788;BME280;12883;52.662;5.196;2023-01-09T06:04:29;99309.66;;;7.70;100.00
24788;BME280;12883;52.662;5.196;2023-01-09T06:06:56;99318.59;;;7.69;100.00
24788;BME280;12883;52.662;5.196;2023-01-09T06:09:21;99309.06;;;7.68;100.00
24788;BME280;12883;52.662;5.196;2023-01-09T06:11:47;99316.75;;;7.70;100.00
24788;BME280;12883;52.662;5.196;2023-01-09T06:14:12;99285.56;;;7.60;100.00
24788;BME280;12883;52.662;5.196;2023-01-09T06:16:38;99306.44;;;7.68;100.00
24788;BME280;12883;52.662;5.196;2023-01-09T06:19:03;99314.72;;;7.72;100.00
24788;BME280;12883;52.662;5.196;2023-01-09T06:21:30;99307.06;;;7.88;100.00
24788;BME280;12883;52.662;5.196;2023-01-09T06:23:56;99312.59;;;7.80;100.00
24788;BME280;12883;52.662;5.196;2023-01-09T06:26:23;99310.41;;;7.77;100.00
24788;BME280;12883;52.662;5.196;2023-01-09T06:28:48;99287.41;;;7.60;100.00
24788;BME280;12883;52.662;5.196;2023-01-09T06:31:14;99296.63;;;7.75;100.00
24788;BME280;12883;52.662;5.196;2023-01-09T06:33:39;99303.44;;;7.83;100.00
24788;BME280;12883;52.662;5.196;2023-01-09T06:36:04;99302.84;;;7.81;100.00
24788;BME280;12883;52.662;5.196;2023-01-09T06:38:30;99300.59;;;7.84;100.00
24788;BME280;12883;52.662;5.196;2023-01-09T06:40:55;99311.13;;;7.84;100.00
24788;BME280;12883;52.662;5.196;2023-01-09T06:43:21;99318.47;;;7.82;100.00
24788;BME280;12883;52.662;5.196;2023-01-09T06:45:46;99316.25;;;7.79;100.00
24788;BME280;12883;52.662;5.196;2023-01-09T06:48:11;99311.81;;;7.80;100.00
24788;BME280;12883;52.662;5.196;2023-01-09T06:50:37;99318.03;;;7.85;100.00
24788;BME280;12883;52.662;5.196;2023-01-09T06:53:02;99321.88;;;7.89;100.00
24788;BME280;12883;52.662;5.196;2023-01-09T06:55:28;99315.75;;;7.89;100.00
24788;BME280;12883;52.662;5.196;2023-01-09T06:57:53;99317.88;;;7.80;100.00
24788;BME280;12883;52.662;5.196;2023-01-09T07:00:19;99278.63;;;7.66;100.00
24788;BME280;12883;52.662;5.196;2023-01-09T07:02:45;99322.81;;;7.95;100.00
24788;BME280;12883;52.662;5.196;2023-01-09T07:05:10;99321.63;;;7.91;100.00
24788;BME280;12883;52.662;5.196;2023-01-09T07:07:37;99327.56;;;7.86;100.00
24788;BME280;12883;52.662;5.196;2023-01-09T07:10:03;99328.56;;;7.92;100.00
24788;BME280;12883;52.662;5.196;2023-01-09T07:12:28;99323.31;;;7.85;100.00
24788;BME280;12883;52.662;5.196;2023-01-09T07:14:54;99304.38;;;7.70;100.00
24788;BME280;12883;52.662;5.196;2023-01-09T07:17:19;99326.13;;;7.90;100.00
24788;BME280;12883;52.662;5.196;2023-01-09T07:19:44;99313.34;;;7.87;100.00
24788;BME280;12883;52.662;5.196;2023-01-09T07:22:10;99291.00;;;7.65;100.00
24788;BME280;12883;52.662;5.196;2023-01-09T07:24:35;99323.28;;;7.92;100.00
24788;BME280;12883;52.662;5.196;2023-01-09T07:27:01;99323.53;;;7.84;100.00
24788;BME280;12883;52.662;5.196;2023-01-09T07:29:26;99327.34;;;7.88;100.00
24788;BME280;12883;52.662;5.196;2023-01-09T07:31:52;99321.03;;;7.89;100.00
24788;BME280;12883;52.662;5.196;2023-01-09T07:34:17;99320.47;;;7.87;100.00
24788;BME280;12883;52.662;5.196;2023-01-09T07:36:43;99313.19;;;7.82;100.00
24788;BME280;12883;52.662;5.196;2023-01-09T07:39:11;99329.19;;;7.87;100.00
24788;BME280;12883;52.662;5.196;2023-01-09T07:41:37;99324.13;;;7.86;100.00
24788;BME280;12883;52.662;5.196;2023-01-09T07:44:03;99318.53;;;7.76;100.00
24788;BME280;12883;52.662;5.196;2023-01-09T07:46:28;99332.84;;;7.86;100.00
24788;BME280;12883;52.662;5.196;2023-01-09T07:48:54;99334.31;;;7.82;100.00
24788;BME280;12883;52.662;5.196;2023-01-09T07:51:19;99328.59;;;7.85;100.00
24788;BME280;12883;52.662;5.196;2023-01-09T07:53:44;99343.56;;;7.91;100.00
24788;BME280;12883;52.662;5.196;2023-01-09T07:56:10;99340.28;;;7.96;100.00
24788;BME280;12883;52.662;5.196;2023-01-09T07:58:36;99341.31;;;7.95;100.00
24788;BME280;12883;52.662;5.196;2023-01-09T08:01:02;99311.06;;;7.73;100.00
24788;BME280;12883;52.662;5.196;2023-01-09T08:03:28;99348.78;;;7.98;100.00
24788;BME280;12883;52.662;5.196;2023-01-09T08:05:53;99345.06;;;8.05;100.00
24788;BME280;12883;52.662;5.196;2023-01-09T08:08:19;99353.94;;;7.93;100.00
24788;BME280;12883;52.662;5.196;2023-01-09T08:10:44;99363.84;;;7.97;100.00
24788;BME280;12883;52.662;5.196;2023-01-09T08:13:09;99362.22;;;7.96;100.00
24788;BME280;12883;52.662;5.196;2023-01-09T08:15:35;99357.31;;;8.00;100.00
24788;BME280;12883;52.662;5.196;2023-01-09T08:18:00;99361.56;;;8.01;100.00
24788;BME280;12883;52.662;5.196;2023-01-09T08:20:26;99362.88;;;8.10;100.00
24788;BME280;12883;52.662;5.196;2023-01-09T08:22:51;99366.41;;;8.04;100.00
24788;BME280;12883;52.662;5.196;2023-01-09T08:25:18;99367.38;;;8.09;100.00
24788;BME280;12883;52.662;5.196;2023-01-09T08:27:44;99367.63;;;8.01;100.00
24788;BME280;12883;52.662;5.196;2023-01-09T08:30:10;99365.97;;;8.07;100.00
24788;BME280;12883;52.662;5.196;2023-01-09T08:32:36;99392.22;;;8.02;100.00
24788;BME280;12883;52.662;5.196;2023-01-09T08:35:03;99375.16;;;8.04;100.00
24788;BME280;12883;52.662;5.196;2023-01-09T08:37:28;99379.09;;;8.13;100.00
24788;BME280;12883;52.662;5.196;2023-01-09T08:39:54;99381.38;;;8.10;100.00
24788;BME280;12883;52.662;5.196;2023-01-09T08:42:20;99361.03;;;7.92;100.00
24788;BME280;12883;52.662;5.196;2023-01-09T08:45:05;99381.97;;;8.12;100.00
24788;BME280;12883;52.662;5.196;2023-01-09T08:48:03;99392.47;;;8.18;100.00
24788;BME280;12883;52.662;5.196;2023-01-09T08:50:29;99388.84;;;8.19;100.00
24788;BME280;12883;52.662;5.196;2023-01-09T08:52:54;99394.66;;;8.28;100.00
24788;BME280;12883;52.662;5.196;2023-01-09T08:55:19;99398.16;;;8.22;100.00
24788;BME280;12883;52.662;5.196;2023-01-09T08:57:49;99412.31;;;8.27;100.00
24788;BME280;12883;52.662;5.196;2023-01-09T09:00:16;99413.94;;;8.28;100.00
24788;BME280;12883;52.662;5.196;2023-01-09T09:02:42;99420.84;;;8.29;100.00
24788;BME280;12883;52.662;5.196;2023-01-09T09:05:07;99411.63;;;8.38;100.00
24788;BME280;12883;52.662;5.196;2023-01-09T09:07:33;99423.22;;;8.37;100.00
24788;BME280;12883;52.662;5.196;2023-01-09T09:09:58;99430.53;;;8.35;100.00
24788;BME280;12883;52.662;5.196;2023-01-09T09:12:23;99428.34;;;8.32;100.00
24788;BME280;12883;52.662;5.196;2023-01-09T09:14:49;99419.84;;;8.30;100.00
24788;BME280;12883;52.662;5.196;2023-01-09T09:17:33;99429.66;;;8.41;100.00
24788;BME280;12883;52.662;5.196;2023-01-09T09:19:59;99426.22;;;8.41;100.00
24788;BME280;12883;52.662;5.196;2023-01-09T09:22:25;99434.28;;;8.46;100.00
24788;BME280;12883;52.662;5.196;2023-01-09T09:24:50;99441.28;;;8.40;100.00
24788;BME280;12883;52.662;5.196;2023-01-09T09:27:16;99442.22;;;8.46;100.00
24788;BME280;12883;52.662;5.196;2023-01-09T09:29:41;99459.06;;;8.51;100.00
24788;BME280;12883;52.662;5.196;2023-01-09T09:32:06;99461.72;;;8.51;100.00
24788;BME280;12883;52.662;5.196;2023-01-09T09:34:32;99466.91;;;8.58;100.00
24788;BME280;12883;52.662;5.196;2023-01-09T09:36:57;99473.44;;;8.55;100.00
24788;BME280;12883;52.662;5.196;2023-01-09T09:39:22;99466.81;;;8.46;100.00
24788;BME280;12883;52.662;5.196;2023-01-09T09:42:18;99481.00;;;8.52;100.00
24788;BME280;12883;52.662;5.196;2023-01-09T09:45:17;99479.47;;;8.44;100.00
24788;BME280;12883;52.662;5.196;2023-01-09T09:53:18;99496.44;;;8.55;100.00
24788;BME280;12883;52.662;5.196;2023-01-09T09:55:47;99496.06;;;8.51;100.00
24788;BME280;12883;52.662;5.196;2023-01-09T10:01:05;99511.06;;;8.57;100.00
24788;BME280;12883;52.662;5.196;2023-01-09T10:03:51;99519.84;;;8.51;100.00
24788;BME280;12883;52.662;5.196;2023-01-09T10:06:31;99510.81;;;8.41;100.00
24788;BME280;12883;52.662;5.196;2023-01-09T10:09:03;99530.00;;;8.54;100.00
24788;BME280;12883;52.662;5.196;2023-01-09T10:12:02;99529.19;;;8.54;100.00
24788;BME280;12883;52.662;5.196;2023-01-09T10:14:29;99543.41;;;8.53;100.00
24788;BME280;12883;52.662;5.196;2023-01-09T10:22:22;99554.75;;;8.60;100.00
24788;BME280;12883;52.662;5.196;2023-01-09T10:24:54;99552.53;;;8.57;100.00
24788;BME280;12883;52.662;5.196;2023-01-09T10:32:54;99576.72;;;8.60;100.00
24788;BME280;12883;52.662;5.196;2023-01-09T10:38:06;99589.44;;;8.70;100.00
24788;BME280;12883;52.662;5.196;2023-01-09T10:40:49;99591.72;;;8.66;100.00
24788;BME280;12883;52.662;5.196;2023-01-09T10:45:47;99598.34;;;8.75;100.00
24788;BME280;12883;52.662;5.196;2023-01-09T10:48:26;99595.28;;;8.78;100.00
24788;BME280;12883;52.662;5.196;2023-01-09T10:50:55;99598.13;;;8.77;100.00
24788;BME280;12883;52.662;5.196;2023-01-09T10:53:42;99597.03;;;8.84;100.00
24788;BME280;12883;52.662;5.196;2023-01-09T10:56:13;99584.00;;;8.65;100.00
24788;BME280;12883;52.662;5.196;2023-01-09T10:58:43;99596.81;;;8.86;100.00
24788;BME280;12883;52.662;5.196;2023-01-09T11:01:09;99598.00;;;8.90;100.00
24788;BME280;12883;52.662;5.196;2023-01-09T11:03:34;99607.34;;;8.92;100.00
24788;BME280;12883;52.662;5.196;2023-01-09T11:06:00;99612.56;;;8.99;100.00
24788;BME280;12883;52.662;5.196;2023-01-09T11:08:32;99616.03;;;8.99;100.00
24788;BME280;12883;52.662;5.196;2023-01-09T11:11:00;99595.13;;;8.91;100.00
24788;BME280;12883;52.662;5.196;2023-01-09T11:13:28;99622.56;;;9.15;100.00
24788;BME280;12883;52.662;5.196;2023-01-09T11:16:42;99625.88;;;9.10;100.00
24788;BME280;12883;52.662;5.196;2023-01-09T11:18:52;99624.72;;;9.24;100.00
24788;BME280;12883;52.662;5.196;2023-01-09T11:26:46;99635.88;;;9.26;100.00
24788;BME280;12883;52.662;5.196;2023-01-09T11:31:40;99645.59;;;9.32;100.00
24788;BME280;12883;52.662;5.196;2023-01-09T11:34:15;99660.44;;;9.33;100.00
24788;BME280;12883;52.662;5.196;2023-01-09T11:36:41;99658.19;;;9.37;100.00
24788;BME280;12883;52.662;5.196;2023-01-09T11:39:20;99670.25;;;9.33;100.00
24788;BME280;12883;52.662;5.196;2023-01-09T11:41:51;99660.44;;;9.33;100.00
24788;BME280;12883;52.662;5.196;2023-01-09T11:44:18;99685.91;;;9.34;100.00
24788;BME280;12883;52.662;5.196;2023-01-09T11:46:43;99670.47;;;9.31;100.00
24788;BME280;12883;52.662;5.196;2023-01-09T11:51:42;99679.34;;;9.37;100.00
24788;BME280;12883;52.662;5.196;2023-01-09T11:56:42;99697.25;;;9.41;100.00
24788;BME280;12883;52.662;5.196;2023-01-09T11:59:14;99707.41;;;9.44;100.00
24788;BME280;12883;52.662;5.196;2023-01-09T12:04:27;99706.53;;;9.50;100.00
24788;BME280;12883;52.662;5.196;2023-01-09T12:12:52;99715.78;;;9.59;100.00
24788;BME280;12883;52.662;5.196;2023-01-09T12:15:32;99726.69;;;9.69;100.00
24788;BME280;12883;52.662;5.196;2023-01-09T12:18:26;99720.22;;;9.65;100.00
24788;BME280;12883;52.662;5.196;2023-01-09T12:24:02;99738.41;;;9.79;100.00
24788;BME280;12883;52.662;5.196;2023-01-09T12:26:58;99744.06;;;9.83;100.00
24788;BME280;12883;52.662;5.196;2023-01-09T12:35:35;99754.59;;;9.89;100.00
24788;BME280;12883;52.662;5.196;2023-01-09T12:38:13;99750.47;;;9.93;100.00
24788;BME280;12883;52.662;5.196;2023-01-09T12:56:54;99772.34;;;9.89;100.00
24788;BME280;12883;52.662;5.196;2023-01-09T13:01:47;99755.56;;;9.77;100.00
24788;BME280;12883;52.662;5.196;2023-01-09T13:04:33;99789.03;;;9.89;100.00
24788;BME280;12883;52.662;5.196;2023-01-09T13:07:10;99790.72;;;9.84;100.00
24788;BME280;12883;52.662;5.196;2023-01-09T13:12:18;99794.41;;;9.83;100.00
24788;BME280;12883;52.662;5.196;2023-01-09T13:15:17;99785.22;;;9.85;100.00
24788;BME280;12883;52.662;5.196;2023-01-09T13:17:49;99782.34;;;9.87;100.00
24788;BME280;12883;52.662;5.196;2023-01-09T13:22:52;99797.06;;;9.83;100.00
24788;BME280;12883;52.662;5.196;2023-01-09T13:25:40;99805.22;;;9.81;100.00
24788;BME280;12883;52.662;5.196;2023-01-09T13:28:16;99810.97;;;9.78;100.00
24788;BME280;12883;52.662;5.196;2023-01-09T13:33:28;99812.50;;;9.86;100.00
24788;BME280;12883;52.662;5.196;2023-01-09T13:35:56;99807.03;;;9.81;100.00
24788;BME280;12883;52.662;5.196;2023-01-09T13:38:24;99821.19;;;9.75;100.00
24788;BME280;12883;52.662;5.196;2023-01-09T13:41:09;99832.53;;;9.82;100.00
24788;BME280;12883;52.662;5.196;2023-01-09T13:43:56;99838.47;;;9.77;100.00
24788;BME280;12883;52.662;5.196;2023-01-09T13:46:32;99791.84;;;9.52;100.00
24788;BME280;12883;52.662;5.196;2023-01-09T13:48:59;99852.25;;;9.86;100.00
24788;BME280;12883;52.662;5.196;2023-01-09T13:54:09;99834.56;;;9.80;100.00
24788;BME280;12883;52.662;5.196;2023-01-09T13:59:37;99857.63;;;9.97;100.00
24788;BME280;12883;52.662;5.196;2023-01-09T14:05:15;99871.50;;;9.99;100.00
24788;BME280;12883;52.662;5.196;2023-01-09T14:08:00;99878.38;;;10.07;100.00
24788;BME280;12883;52.662;5.196;2023-01-09T14:10:35;99886.00;;;9.97;100.00
24788;BME280;12883;52.662;5.196;2023-01-09T14:13:07;99893.59;;;9.87;100.00
24788;BME280;12883;52.662;5.196;2023-01-09T14:15:39;99899.66;;;9.94;100.00
24788;BME280;12883;52.662;5.196;2023-01-09T14:18:17;99912.16;;;9.87;100.00
24788;BME280;12883;52.662;5.196;2023-01-09T14:20:51;99917.72;;;9.79;100.00
24788;BME280;12883;52.662;5.196;2023-01-09T14:23:27;99920.34;;;9.85;100.00
24788;BME280;12883;52.662;5.196;2023-01-09T14:25:54;99931.19;;;9.77;100.00
24788;BME280;12883;52.662;5.196;2023-01-09T14:28:28;99943.47;;;9.72;100.00
24788;BME280;12883;52.662;5.196;2023-01-09T14:38:42;99968.63;;;9.56;100.00
24788;BME280;12883;52.662;5.196;2023-01-09T14:41:45;99963.50;;;9.61;100.00
24788;BME280;12883;52.662;5.196;2023-01-09T14:44:26;99985.34;;;9.57;100.00
24788;BME280;12883;52.662;5.196;2023-01-09T14:46:53;99981.47;;;9.53;100.00
24788;BME280;12883;52.662;5.196;2023-01-09T14:51:58;100008.78;;;9.53;100.00
24788;BME280;12883;52.662;5.196;2023-01-09T14:54:29;100005.75;;;9.50;100.00
24788;BME280;12883;52.662;5.196;2023-01-09T14:56:55;100009.63;;;9.48;100.00
24788;BME280;12883;52.662;5.196;2023-01-09T14:59:21;100018.59;;;9.47;100.00
24788;BME280;12883;52.662;5.196;2023-01-09T15:01:48;100027.13;;;9.55;100.00
24788;BME280;12883;52.662;5.196;2023-01-09T15:06:46;100039.72;;;9.53;100.00
24788;BME280;12883;52.662;5.196;2023-01-09T15:11:40;100049.91;;;9.56;100.00
24788;BME280;12883;52.662;5.196;2023-01-09T15:14:06;100004.59;;;9.33;100.00
24788;BME280;12883;52.662;5.196;2023-01-09T15:16:38;100054.38;;;9.62;100.00
24788;BME280;12883;52.662;5.196;2023-01-09T15:19:06;100059.69;;;9.62;100.00
24788;BME280;12883;52.662;5.196;2023-01-09T15:21:32;100022.28;;;9.39;100.00
24788;BME280;12883;52.662;5.196;2023-01-09T15:24:11;100056.84;;;9.57;100.00
24788;BME280;12883;52.662;5.196;2023-01-09T15:26:38;100082.88;;;9.60;100.00
24788;BME280;12883;52.662;5.196;2023-01-09T15:29:14;100089.84;;;9.61;100.00
24788;BME280;12883;52.662;5.196;2023-01-09T15:31:43;100072.78;;;9.44;100.00